createdAt,value
2023-11-30T00:00:56.656Z,3.90
2023-11-30T00:04:18.699Z,4.63
2023-11-30T00:07:40.543Z,4.20
2023-11-30T00:11:02.441Z,3.70
2023-11-30T00:14:25.666Z,4.47
2023-11-30T00:17:47.156Z,4.10
2023-11-30T00:21:09.166Z,3.63
2023-11-30T00:24:30.768Z,4.30
2023-11-30T00:27:52.717Z,4.57
2023-11-30T00:31:15.950Z,4.10
2023-11-30T00:34:37.730Z,4.37
2023-11-30T00:37:59.113Z,4.40
2023-11-30T00:41:20.709Z,4.10
2023-11-30T00:44:43.856Z,4.60
2023-11-30T00:48:07.668Z,4.57
2023-11-30T00:51:30.742Z,4.73
2023-11-30T00:54:52.805Z,4.27
2023-11-30T00:58:14.664Z,4.13
2023-11-30T01:01:36.675Z,3.57
2023-11-30T01:04:59.978Z,4.47
2023-11-30T01:08:21.866Z,4.27
2023-11-30T01:11:44.640Z,4.30
2023-11-30T01:15:07.247Z,4.27
2023-11-30T01:18:29.228Z,4.50
2023-11-30T01:21:52.296Z,4.37
2023-11-30T01:25:15.091Z,4.10
2023-11-30T01:28:36.969Z,4.83
2023-11-30T01:31:58.810Z,4.83
2023-11-30T01:35:20.568Z,4.20
2023-11-30T01:38:43.218Z,4.40
2023-11-30T01:42:06.040Z,4.27
2023-11-30T01:45:28.596Z,5.10
2023-11-30T01:48:50.672Z,4.80
2023-11-30T01:52:14.436Z,4.80
2023-11-30T01:55:38.120Z,5.00
2023-11-30T01:58:59.911Z,5.50
2023-11-30T02:02:21.942Z,4.20
2023-11-30T02:05:44.581Z,4.73
2023-11-30T02:09:06.648Z,5.03
2023-11-30T02:12:29.702Z,4.23
2023-11-30T02:15:51.525Z,4.90
2023-11-30T02:19:13.665Z,4.33
2023-11-30T02:22:36.849Z,4.47
2023-11-30T02:25:58.371Z,4.40
2023-11-30T02:29:20.820Z,4.30
2023-11-30T02:32:42.852Z,4.43
2023-11-30T02:36:04.934Z,4.37
2023-11-30T02:39:28.272Z,4.30
2023-11-30T02:42:50.159Z,4.10
2023-11-30T02:46:12.377Z,4.13
2023-11-30T02:49:33.997Z,3.87
2023-11-30T02:52:55.856Z,4.87
2023-11-30T02:56:18.724Z,4.17
2023-11-30T02:59:40.059Z,4.53
2023-11-30T03:03:01.639Z,4.00
2023-11-30T03:06:23.763Z,4.17
2023-11-30T03:09:45.870Z,4.97
2023-11-30T03:13:08.871Z,4.80
2023-11-30T03:16:30.725Z,4.37
2023-11-30T03:19:52.537Z,4.57
2023-11-30T03:23:14.495Z,5.03
2023-11-30T03:26:35.723Z,5.23
2023-11-30T03:29:58.602Z,5.37
2023-11-30T03:33:20.732Z,5.87
2023-11-30T03:36:42.582Z,5.20
2023-11-30T03:40:04.447Z,5.43
2023-11-30T03:43:26.136Z,5.73
2023-11-30T03:46:48.969Z,5.23
2023-11-30T03:50:11.594Z,5.87
2023-11-30T03:53:33.250Z,5.83
2023-11-30T03:56:56.852Z,5.47
2023-11-30T04:00:19.542Z,5.63
2023-11-30T04:03:42.562Z,5.33
2023-11-30T04:07:04.525Z,6.23
2023-11-30T04:10:26.619Z,5.13
2023-11-30T04:13:49.435Z,5.83
2023-11-30T04:17:11.867Z,5.07
2023-11-30T04:20:35.873Z,5.27
2023-11-30T04:23:57.836Z,5.83
2023-11-30T04:27:19.866Z,5.33
2023-11-30T04:30:42.124Z,5.60
2023-11-30T04:34:04.368Z,5.60
2023-11-30T04:37:27.436Z,4.83
2023-11-30T04:40:48.993Z,5.10
2023-11-30T04:44:10.306Z,5.30
2023-11-30T04:47:31.715Z,6.17
2023-11-30T04:50:53.833Z,6.33
2023-11-30T04:54:17.235Z,5.60
2023-11-30T04:57:38.918Z,7.30
2023-11-30T05:01:00.802Z,9.13
2023-11-30T05:04:22.818Z,11.20
2023-11-30T05:07:44.639Z,12.13
2023-11-30T05:11:08.083Z,11.57
2023-11-30T05:14:29.817Z,8.27
2023-11-30T05:17:52.004Z,7.30
2023-11-30T05:21:13.940Z,6.37
2023-11-30T05:24:35.652Z,5.63
2023-11-30T05:27:59.533Z,5.50
2023-11-30T05:31:20.852Z,5.47
2023-11-30T05:34:42.808Z,5.53
2023-11-30T05:38:04.468Z,5.10
2023-11-30T05:41:26.040Z,5.47
2023-11-30T05:44:48.792Z,5.43
2023-11-30T05:48:10.410Z,5.30
2023-11-30T05:51:32.336Z,6.07
2023-11-30T05:54:55.998Z,5.87
2023-11-30T05:58:17.781Z,6.17
2023-11-30T06:01:40.803Z,6.03
2023-11-30T06:05:02.667Z,6.10
2023-11-30T06:08:25.654Z,6.77
2023-11-30T06:11:47.329Z,6.27
2023-11-30T06:15:10.854Z,5.97
2023-11-30T06:18:34.366Z,6.40
2023-11-30T06:21:56.235Z,6.00
2023-11-30T06:25:17.958Z,5.60
2023-11-30T06:28:39.656Z,5.63
2023-11-30T06:32:01.937Z,6.40
2023-11-30T06:35:24.962Z,13.57
2023-11-30T06:38:46.296Z,6.97
2023-11-30T06:42:08.211Z,6.70
2023-11-30T06:45:29.850Z,6.60
2023-11-30T06:48:52.467Z,6.47
2023-11-30T06:52:15.427Z,7.93
2023-11-30T06:55:36.738Z,7.43
2023-11-30T06:58:59.109Z,7.87
2023-11-30T07:02:20.751Z,7.33
2023-11-30T07:05:43.012Z,9.30
2023-11-30T07:09:07.025Z,10.17
2023-11-30T07:12:29.278Z,10.60
2023-11-30T07:15:51.512Z,8.57
2023-11-30T07:19:14.630Z,7.43
2023-11-30T07:22:36.821Z,6.47
2023-11-30T07:26:00.057Z,6.73
2023-11-30T07:29:26.367Z,7.10
2023-11-30T07:32:48.565Z,7.30
2023-11-30T07:36:15.017Z,7.97
2023-11-30T07:39:37.866Z,6.77
2023-11-30T07:43:01.030Z,7.23
2023-11-30T07:46:22.803Z,7.17
2023-11-30T07:49:44.827Z,7.17
2023-11-30T07:53:09.685Z,7.17
2023-11-30T07:56:31.446Z,11.10
2023-11-30T07:59:54.326Z,8.80
2023-11-30T08:03:16.143Z,6.57
2023-11-30T08:06:38.168Z,6.70
2023-11-30T08:10:00.348Z,5.77
2023-11-30T08:13:22.872Z,6.03
2023-11-30T08:16:46.335Z,6.13
2023-11-30T08:20:11.266Z,6.70
2023-11-30T08:23:34.466Z,5.93
2023-11-30T08:26:56.134Z,5.93
2023-11-30T08:30:18.607Z,6.43
2023-11-30T08:33:41.711Z,6.63
2023-11-30T08:37:03.536Z,6.97
2023-11-30T08:40:25.427Z,6.47
2023-11-30T08:43:46.841Z,7.33
2023-11-30T08:47:08.569Z,7.87
2023-11-30T08:50:31.827Z,7.23
2023-11-30T08:53:53.458Z,7.00
2023-11-30T08:57:15.067Z,7.20
2023-11-30T09:00:40.861Z,6.60
2023-11-30T09:04:06.034Z,6.70
2023-11-30T09:07:29.585Z,6.83
2023-11-30T09:10:51.413Z,6.53
2023-11-30T09:14:13.110Z,5.97
2023-11-30T09:17:35.116Z,6.80
2023-11-30T09:20:56.951Z,7.03
2023-11-30T09:24:23.304Z,6.83
2023-11-30T09:27:45.257Z,6.47
2023-11-30T09:31:08.065Z,7.40
2023-11-30T09:34:31.111Z,7.40
2023-11-30T09:37:52.448Z,7.83
2023-11-30T09:41:18.201Z,7.13
2023-11-30T09:44:40.216Z,7.47
2023-11-30T09:48:01.988Z,7.73
2023-11-30T09:51:27.845Z,8.57
2023-11-30T09:54:56.269Z,8.63
2023-11-30T09:58:19.401Z,12.00
2023-11-30T10:01:41.494Z,8.97
2023-11-30T10:05:04.287Z,6.97
2023-11-30T10:08:25.877Z,7.23
2023-11-30T10:11:47.634Z,7.50
2023-11-30T10:15:11.725Z,7.90
2023-11-30T10:18:34.582Z,7.93
2023-11-30T10:21:56.909Z,7.33
2023-11-30T10:25:18.856Z,7.80
2023-11-30T10:28:40.333Z,7.30
2023-11-30T10:32:06.301Z,7.33
2023-11-30T10:35:31.840Z,7.40
2023-11-30T10:38:59.426Z,7.87
2023-11-30T10:42:23.636Z,8.07
2023-11-30T10:45:47.390Z,10.40
2023-11-30T10:49:10.743Z,8.53
2023-11-30T10:52:33.592Z,8.93
2023-11-30T10:55:56.189Z,8.37
2023-11-30T10:59:17.952Z,7.53
2023-11-30T11:02:39.880Z,8.67
2023-11-30T11:06:06.860Z,8.57
2023-11-30T11:09:28.502Z,8.30
2023-11-30T11:12:53.645Z,8.33
2023-11-30T11:16:15.617Z,7.20
2023-11-30T11:19:41.624Z,7.77
2023-11-30T11:23:10.121Z,7.03
2023-11-30T11:26:42.856Z,7.07
2023-11-30T11:30:09.841Z,7.30
2023-11-30T11:33:31.719Z,7.27
2023-11-30T11:36:53.610Z,6.73
2023-11-30T11:40:18.354Z,7.47
2023-11-30T11:43:39.858Z,7.20
2023-11-30T11:47:01.953Z,8.10
2023-11-30T11:50:23.532Z,7.27
2023-11-30T11:53:45.171Z,7.73
2023-11-30T11:57:08.272Z,7.10
2023-11-30T12:00:31.186Z,7.60
2023-11-30T12:03:53.585Z,7.30
2023-11-30T12:07:17.493Z,7.20
2023-11-30T12:10:42.780Z,6.90
2023-11-30T12:14:06.903Z,7.67
2023-11-30T12:17:28.405Z,6.67
2023-11-30T12:20:50.731Z,7.00
2023-11-30T12:24:12.938Z,6.73
2023-11-30T12:27:34.721Z,6.20
2023-11-30T12:30:58.283Z,5.57
2023-11-30T12:34:21.005Z,6.47
2023-11-30T12:37:43.098Z,5.40
2023-11-30T12:41:05.177Z,5.70
2023-11-30T12:44:27.108Z,7.40
2023-11-30T12:47:50.840Z,8.20
2023-11-30T12:51:12.754Z,6.70
2023-11-30T12:54:35.003Z,6.30
2023-11-30T12:57:57.141Z,6.60
2023-11-30T13:01:19.064Z,7.23
2023-11-30T13:04:43.631Z,5.70
2023-11-30T13:08:05.382Z,6.40
2023-11-30T13:11:27.053Z,6.43
2023-11-30T13:14:57.297Z,6.80
2023-11-30T13:18:21.438Z,5.93
2023-11-30T13:21:46.409Z,6.30
2023-11-30T13:25:11.294Z,5.90
2023-11-30T13:28:37.933Z,5.70
2023-11-30T13:32:05.502Z,5.20
2023-11-30T13:35:27.992Z,5.67
2023-11-30T13:38:50.945Z,6.30
2023-11-30T13:42:12.580Z,5.93
2023-11-30T13:45:34.705Z,6.23
2023-11-30T13:48:56.362Z,5.43
2023-11-30T13:52:18.170Z,5.90
2023-11-30T13:55:43.290Z,6.50
2023-11-30T13:59:10.184Z,5.60
2023-11-30T14:02:32.965Z,6.07
2023-11-30T14:05:55.353Z,5.60
2023-11-30T14:09:27.078Z,5.40
2023-11-30T14:12:50.289Z,5.73
2023-11-30T14:16:12.871Z,6.60
2023-11-30T14:19:35.207Z,5.97
2023-11-30T14:22:57.305Z,6.53
2023-11-30T14:26:18.700Z,6.33
2023-11-30T14:29:42.178Z,7.03
2023-11-30T14:33:04.038Z,7.97
2023-11-30T14:36:26.148Z,6.70
2023-11-30T14:39:48.669Z,6.53
2023-11-30T14:43:10.703Z,7.60
2023-11-30T14:46:34.711Z,7.37
2023-11-30T14:49:56.587Z,6.27
2023-11-30T14:53:17.952Z,7.30
2023-11-30T14:56:40.885Z,6.50
2023-11-30T15:00:05.316Z,7.10
2023-11-30T15:03:28.469Z,7.67
2023-11-30T15:06:50.415Z,9.73
2023-11-30T15:10:13.043Z,8.90
2023-11-30T15:13:35.057Z,9.87
2023-11-30T15:16:56.535Z,8.00
2023-11-30T15:20:20.445Z,8.27
2023-11-30T15:23:43.695Z,8.30
2023-11-30T15:27:05.517Z,7.93
2023-11-30T15:30:27.807Z,8.07
2023-11-30T15:33:50.255Z,8.40
2023-11-30T15:37:13.322Z,10.23
2023-11-30T15:40:36.612Z,11.63
2023-11-30T15:43:58.381Z,16.30
2023-11-30T15:47:20.632Z,11.23
2023-11-30T15:50:42.736Z,9.40
2023-11-30T15:54:05.944Z,7.60
2023-11-30T15:57:27.599Z,7.03
2023-11-30T16:00:49.949Z,7.00
2023-11-30T16:04:12.308Z,6.70
2023-11-30T16:07:35.413Z,7.07
2023-11-30T16:10:58.320Z,6.87
2023-11-30T16:14:20.107Z,6.50
2023-11-30T16:17:42.305Z,6.93
2023-11-30T16:21:04.281Z,6.30
2023-11-30T16:24:25.855Z,6.60
2023-11-30T16:27:50.274Z,6.13
2023-11-30T16:31:12.124Z,6.43
2023-11-30T16:34:33.501Z,14.53
2023-11-30T16:37:55.870Z,18.17
2023-11-30T16:41:17.858Z,13.70
2023-11-30T16:44:42.970Z,11.07
2023-11-30T16:48:04.543Z,10.23
2023-11-30T16:51:26.776Z,9.40
2023-11-30T16:54:48.600Z,10.07
2023-11-30T16:58:10.187Z,10.20
2023-11-30T17:01:35.343Z,9.80
2023-11-30T17:04:57.578Z,10.47
2023-11-30T17:08:19.278Z,11.47
2023-11-30T17:11:40.926Z,13.77
2023-11-30T17:15:06.372Z,16.27
2023-11-30T17:18:29.647Z,17.63
2023-11-30T17:21:53.573Z,20.53
2023-11-30T17:25:16.949Z,20.93
2023-11-30T17:29:28.230Z,19.60
2023-11-30T17:32:50.413Z,17.23
2023-11-30T17:36:13.804Z,16.80
2023-11-30T17:39:35.708Z,17.77
2023-11-30T17:42:57.688Z,20.53
2023-11-30T17:46:19.521Z,21.83
2023-11-30T17:49:41.528Z,26.87
2023-11-30T17:53:05.927Z,19.37
2023-11-30T17:56:27.552Z,16.77
2023-11-30T17:59:49.482Z,14.00
2023-11-30T18:03:10.892Z,13.40
2023-11-30T18:06:33.225Z,12.37
2023-11-30T18:10:00.442Z,11.13
2023-11-30T18:13:22.364Z,11.17
2023-11-30T18:16:44.900Z,10.37
2023-11-30T18:20:07.294Z,9.07
2023-11-30T18:23:28.680Z,8.80
2023-11-30T18:26:51.623Z,8.80
2023-11-30T18:30:14.947Z,8.53
2023-11-30T18:33:36.506Z,8.40
2023-11-30T18:36:58.827Z,8.50
2023-11-30T18:40:21.350Z,7.93
2023-11-30T18:43:44.449Z,7.77
2023-11-30T18:47:06.441Z,7.53
2023-11-30T18:50:28.525Z,8.63
2023-11-30T18:53:50.369Z,9.00
2023-11-30T18:57:12.101Z,8.93
2023-11-30T19:00:35.530Z,9.07
2023-11-30T19:03:57.398Z,10.63
2023-11-30T19:07:18.794Z,7.70
2023-11-30T19:10:40.909Z,9.70
2023-11-30T19:14:02.443Z,8.27
2023-11-30T19:17:25.789Z,8.33
2023-11-30T19:20:47.317Z,7.53
2023-11-30T19:24:09.750Z,8.37
2023-11-30T19:27:31.874Z,10.00
2023-11-30T19:30:53.526Z,10.20
2023-11-30T19:34:16.988Z,10.10
2023-11-30T19:37:38.658Z,8.53
2023-11-30T19:41:00.842Z,8.67
2023-11-30T19:44:22.728Z,9.00
2023-11-30T19:47:45.024Z,8.67
2023-11-30T19:51:08.509Z,7.90
2023-11-30T19:54:30.101Z,8.67
2023-11-30T19:57:52.457Z,9.57
2023-11-30T20:01:14.195Z,8.03
2023-11-30T20:04:36.036Z,8.37
2023-11-30T20:07:59.308Z,7.57
2023-11-30T20:11:22.630Z,8.23
2023-11-30T20:14:44.845Z,6.53
2023-11-30T20:18:08.232Z,7.67
2023-11-30T20:21:30.198Z,8.23
2023-11-30T20:24:53.840Z,8.07
2023-11-30T20:28:15.886Z,7.50
2023-11-30T20:31:37.361Z,6.80
2023-11-30T20:34:59.367Z,7.03
2023-11-30T20:38:20.953Z,6.80
2023-11-30T20:41:45.250Z,6.77
2023-11-30T20:45:07.532Z,7.50
2023-11-30T20:48:29.431Z,7.53
2023-11-30T20:51:50.811Z,6.90
2023-11-30T20:55:13.097Z,7.63
2023-11-30T20:58:37.896Z,8.30
2023-11-30T21:02:01.052Z,7.73
2023-11-30T21:05:23.404Z,9.20
2023-11-30T21:08:45.310Z,8.40
2023-11-30T21:12:07.637Z,8.10
2023-11-30T21:15:30.987Z,8.73
2023-11-30T21:18:53.003Z,8.70
2023-11-30T21:22:14.841Z,10.20
2023-11-30T21:25:36.527Z,10.17
2023-11-30T21:28:57.944Z,9.53
2023-11-30T21:32:20.927Z,8.07
2023-11-30T21:35:42.798Z,6.93
2023-11-30T21:39:04.717Z,7.77
2023-11-30T21:42:26.581Z,7.53
2023-11-30T21:45:48.027Z,9.50
2023-11-30T21:49:11.621Z,9.27
2023-11-30T21:52:33.810Z,10.23
2023-11-30T21:55:55.475Z,9.90
2023-11-30T21:59:17.748Z,10.13
2023-11-30T22:02:39.999Z,9.33
2023-11-30T22:06:02.778Z,8.87
2023-11-30T22:09:24.117Z,9.40
2023-11-30T22:12:45.607Z,9.13
2023-11-30T22:16:12.661Z,8.10
2023-11-30T22:19:35.836Z,7.80
2023-11-30T22:22:58.856Z,8.20
2023-11-30T22:26:20.225Z,8.20
2023-11-30T22:29:43.557Z,8.30
2023-11-30T22:33:05.286Z,7.97
2023-11-30T22:36:27.040Z,8.97
2023-11-30T22:39:50.468Z,9.20
2023-11-30T22:43:12.551Z,10.17
2023-11-30T22:46:34.192Z,8.80
2023-11-30T22:49:56.250Z,9.23
2023-11-30T22:53:18.180Z,8.23
2023-11-30T22:56:41.205Z,8.03
2023-11-30T23:00:02.867Z,7.43
2023-11-30T23:03:25.004Z,7.50
2023-11-30T23:06:46.906Z,7.80
2023-11-30T23:10:13.243Z,8.30
2023-11-30T23:13:36.645Z,8.63
2023-11-30T23:16:58.735Z,7.97
2023-11-30T23:20:20.141Z,8.00
2023-11-30T23:23:42.334Z,6.00
2023-11-30T23:27:03.762Z,5.77
2023-11-30T23:30:26.482Z,6.30
2023-11-30T23:33:48.316Z,6.60
2023-11-30T23:37:10.409Z,7.40
2023-11-30T23:40:32.297Z,7.53
2023-11-30T23:43:53.989Z,7.80
2023-11-30T23:47:16.858Z,6.33
2023-11-30T23:50:38.313Z,6.80
2023-11-30T23:54:00.062Z,7.07
2023-11-30T23:57:21.712Z,5.37
